createdAt,value
2023-04-18T00:00:43.410Z,20.800
2023-04-18T00:01:43.770Z,19.100
2023-04-18T00:02:43.680Z,19.800
2023-04-18T00:03:44.486Z,21.700
2023-04-18T00:04:45.000Z,21.900
2023-04-18T00:08:42.734Z,22.000
2023-04-18T00:09:43.435Z,23.600
2023-04-18T00:10:43.614Z,21.600
2023-04-18T00:11:44.777Z,19.800
2023-04-18T00:12:42.857Z,21.000
2023-04-18T00:13:43.054Z,20.700
2023-04-18T00:14:43.173Z,20.300
2023-04-18T00:15:43.301Z,20.100
2023-04-18T00:17:44.032Z,20.900
2023-04-18T00:18:43.135Z,19.600
2023-04-18T00:19:43.403Z,21.300
2023-04-18T00:20:43.652Z,19.800
2023-04-18T00:21:43.016Z,19.800
2023-04-18T00:22:43.151Z,22.000
2023-04-18T00:23:43.409Z,21.300
2023-04-18T00:24:43.589Z,22.000
2023-04-18T00:25:43.774Z,22.000
2023-04-18T00:26:42.967Z,21.300
2023-04-18T00:27:43.174Z,21.900
2023-04-18T00:28:43.576Z,18.400
2023-04-18T00:29:43.780Z,18.000
2023-04-18T00:30:43.111Z,20.200
2023-04-18T00:31:43.638Z,18.600
2023-04-18T00:32:43.049Z,18.200
2023-04-18T00:33:43.310Z,18.600
2023-04-18T00:34:43.476Z,19.800
2023-04-18T00:35:43.627Z,20.200
2023-04-18T00:36:42.894Z,18.600
2023-04-18T00:37:43.402Z,19.200
2023-04-18T00:38:43.554Z,19.200
2023-04-18T00:39:43.753Z,20.300
2023-04-18T00:40:42.904Z,20.100
2023-04-18T00:41:43.298Z,17.900
2023-04-18T00:42:43.472Z,21.200
2023-04-18T00:43:43.732Z,19.800
2023-04-18T00:44:42.880Z,18.300
2023-04-18T00:45:43.165Z,18.200
2023-04-18T00:46:43.488Z,19.400
2023-04-18T00:47:43.882Z,19.200
2023-04-18T00:48:43.035Z,18.900
2023-04-18T00:49:43.261Z,19.300
2023-04-18T00:50:43.529Z,18.200
2023-04-18T00:51:43.823Z,17.900
2023-04-18T00:52:43.009Z,19.400
2023-04-18T00:53:43.251Z,19.200
2023-04-18T00:54:43.435Z,18.000
2023-04-18T00:55:43.635Z,19.400
2023-04-18T00:56:42.756Z,19.100
2023-04-18T00:57:42.946Z,27.800
2023-04-18T00:58:43.083Z,21.700
2023-04-18T00:59:43.269Z,22.500
2023-04-18T01:00:43.523Z,17.200
2023-04-18T01:01:43.965Z,18.300
2023-04-18T01:02:44.238Z,21.800
2023-04-18T01:03:44.876Z,27.000
2023-04-18T01:04:43.609Z,23.600
2023-04-18T01:05:42.753Z,18.200
2023-04-18T01:06:42.928Z,18.100
2023-04-18T01:07:43.357Z,17.600
2023-04-18T01:08:43.537Z,18.600
2023-04-18T01:09:43.668Z,17.800
2023-04-18T01:10:42.835Z,19.500
2023-04-18T01:11:42.927Z,18.800
2023-04-18T01:12:43.120Z,18.900
2023-04-18T01:13:43.233Z,17.700
2023-04-18T01:14:43.459Z,18.600
2023-04-18T01:15:43.843Z,18.000
2023-04-18T01:16:43.208Z,18.100
2023-04-18T01:17:43.508Z,17.800
2023-04-18T01:18:43.764Z,18.600
2023-04-18T01:19:43.001Z,18.200
2023-04-18T01:20:43.172Z,16.900
2023-04-18T01:21:43.353Z,16.800
2023-04-18T01:22:43.516Z,18.200
2023-04-18T01:23:43.731Z,18.900
2023-04-18T01:24:42.859Z,22.200
2023-04-18T01:25:43.040Z,17.900
2023-04-18T01:26:43.224Z,16.800
2023-04-18T01:27:43.419Z,17.200
2023-04-18T01:28:43.619Z,17.600
2023-04-18T01:29:43.830Z,16.600
2023-04-18T01:30:43.036Z,24.500
2023-04-18T01:31:43.669Z,18.700
2023-04-18T01:32:43.176Z,17.400
2023-04-18T01:33:43.306Z,17.100
2023-04-18T01:34:43.463Z,25.100
2023-04-18T01:35:43.712Z,31.200
2023-04-18T01:36:42.825Z,19.800
2023-04-18T01:37:43.459Z,17.100
2023-04-18T01:38:43.665Z,19.700
2023-04-18T01:39:42.860Z,18.200
2023-04-18T01:40:43.070Z,18.400
2023-04-18T01:41:43.221Z,19.300
2023-04-18T01:42:43.309Z,18.700
2023-04-18T01:43:43.504Z,17.600
2023-04-18T01:44:43.634Z,17.700
2023-04-18T01:45:42.843Z,18.000
2023-04-18T01:46:43.458Z,17.800
2023-04-18T01:47:43.900Z,17.600
2023-04-18T01:48:43.049Z,18.200
2023-04-18T01:49:43.137Z,18.400
2023-04-18T01:50:43.355Z,18.300
2023-04-18T01:51:43.523Z,17.900
2023-04-18T01:52:43.717Z,18.200
2023-04-18T01:53:42.808Z,18.500
2023-04-18T01:54:43.029Z,17.100
2023-04-18T01:55:43.375Z,17.200
2023-04-18T01:56:43.640Z,17.600
2023-04-18T01:57:42.815Z,17.600
2023-04-18T01:58:43.110Z,19.000
2023-04-18T01:59:43.244Z,17.500
2023-04-18T02:00:43.580Z,18.900
2023-04-18T02:01:44.219Z,18.900
2023-04-18T02:02:44.281Z,16.900
2023-04-18T02:03:44.931Z,17.700
2023-04-18T02:04:43.308Z,17.000
2023-04-18T02:05:43.649Z,18.500
2023-04-18T02:06:42.780Z,18.600
2023-04-18T02:07:43.014Z,17.300
2023-04-18T02:08:43.228Z,18.100
2023-04-18T02:09:43.402Z,18.100
2023-04-18T02:10:43.540Z,18.500
2023-04-18T02:11:43.737Z,16.500
2023-04-18T02:12:42.911Z,23.400
2023-04-18T02:13:43.169Z,19.700
2023-04-18T02:14:43.299Z,19.000
2023-04-18T02:15:43.472Z,17.000
2023-04-18T02:16:44.017Z,18.400
2023-04-18T02:17:43.614Z,17.000
2023-04-18T02:18:42.762Z,17.900
2023-04-18T02:19:42.879Z,17.600
2023-04-18T02:20:43.128Z,19.200
2023-04-18T02:21:43.316Z,17.800
2023-04-18T02:22:43.477Z,17.900
2023-04-18T02:23:43.638Z,17.900
2023-04-18T02:24:42.810Z,17.500
2023-04-18T02:25:43.007Z,17.000
2023-04-18T02:26:43.200Z,17.300
2023-04-18T02:27:43.411Z,17.600
2023-04-18T02:28:43.579Z,17.500
2023-04-18T02:29:43.726Z,16.700
2023-04-18T02:30:43.119Z,17.500
2023-04-18T02:31:43.573Z,17.400
2023-04-18T02:32:44.994Z,21.700
2023-04-18T02:34:43.302Z,17.700
2023-04-18T02:35:43.489Z,19.100
2023-04-18T02:36:43.709Z,17.200
2023-04-18T02:37:42.869Z,17.400
2023-04-18T02:38:43.184Z,19.400
2023-04-18T02:39:43.508Z,18.200
2023-04-18T02:40:43.679Z,28.400
2023-04-18T02:41:42.864Z,17.000
2023-04-18T02:42:43.075Z,18.900
2023-04-18T02:43:43.233Z,18.600
2023-04-18T02:44:43.515Z,17.100
2023-04-18T02:45:43.792Z,17.400
2023-04-18T02:46:42.965Z,17.900
2023-04-18T02:48:43.175Z,22.500
2023-04-18T02:49:43.426Z,19.100
2023-04-18T02:50:43.695Z,18.400
2023-04-18T02:51:42.799Z,17.600
2023-04-18T02:52:43.023Z,16.500
2023-04-18T02:53:43.166Z,20.500
2023-04-18T02:54:43.527Z,17.500
2023-04-18T02:55:43.725Z,19.100
2023-04-18T02:56:42.981Z,16.500
2023-04-18T02:57:43.154Z,20.100
2023-04-18T02:58:43.531Z,18.800
2023-04-18T02:59:43.670Z,16.800
2023-04-18T03:00:42.840Z,17.200
2023-04-18T03:01:43.367Z,19.500
2023-04-18T03:02:44.299Z,17.600
2023-04-18T03:03:43.832Z,17.700
2023-04-18T03:04:43.180Z,17.300
2023-04-18T03:05:43.568Z,17.100
2023-04-18T03:06:43.790Z,17.200
2023-04-18T03:07:42.917Z,18.600
2023-04-18T03:08:43.176Z,17.400
2023-04-18T03:09:43.554Z,18.000
2023-04-18T03:10:42.734Z,17.700
2023-04-18T03:11:43.008Z,17.500
2023-04-18T03:12:43.225Z,17.400
2023-04-18T03:13:43.553Z,17.500
2023-04-18T03:14:43.713Z,15.800
2023-04-18T03:15:43.100Z,16.500
2023-04-18T03:16:43.652Z,17.200
2023-04-18T03:17:42.980Z,18.000
2023-04-18T03:18:43.264Z,16.200
2023-04-18T03:19:43.482Z,17.100
2023-04-18T03:20:43.644Z,17.000
2023-04-18T03:21:42.851Z,17.000
2023-04-18T03:22:43.028Z,16.800
2023-04-18T03:23:43.199Z,18.300
2023-04-18T03:24:43.424Z,17.800
2023-04-18T03:25:43.637Z,18.200
2023-04-18T03:26:42.803Z,17.800
2023-04-18T03:27:42.963Z,17.000
2023-04-18T03:28:43.195Z,16.700
2023-04-18T03:29:43.374Z,19.100
2023-04-18T03:30:43.580Z,18.400
2023-04-18T03:31:44.154Z,18.400
2023-04-18T03:32:43.791Z,17.800
2023-04-18T03:33:42.977Z,18.600
2023-04-18T03:34:43.279Z,16.700
2023-04-18T03:35:43.544Z,17.400
2023-04-18T03:36:42.724Z,17.900
2023-04-18T03:37:42.930Z,16.800
2023-04-18T03:38:43.156Z,19.700
2023-04-18T03:39:43.293Z,17.900
2023-04-18T03:40:43.519Z,18.000
2023-04-18T03:41:43.684Z,17.500
2023-04-18T03:42:42.792Z,17.900
2023-04-18T03:43:42.950Z,16.700
2023-04-18T03:44:43.283Z,18.400
2023-04-18T03:45:43.460Z,18.500
2023-04-18T03:46:43.945Z,17.700
2023-04-18T03:47:43.157Z,18.800
2023-04-18T03:48:43.481Z,18.200
2023-04-18T03:49:43.742Z,17.200
2023-04-18T03:50:42.910Z,17.000
2023-04-18T03:51:43.079Z,18.000
2023-04-18T03:52:45.695Z,17.400
2023-04-18T03:53:42.753Z,18.400
2023-04-18T03:54:42.928Z,17.300
2023-04-18T03:55:43.108Z,18.300
2023-04-18T03:56:43.360Z,17.800
2023-04-18T03:57:44.407Z,17.700
2023-04-18T03:58:43.621Z,18.800
2023-04-18T04:02:44.483Z,17.500
2023-04-18T04:03:44.852Z,19.200
2023-04-18T04:04:43.716Z,18.500
2023-04-18T04:06:43.301Z,16.800
2023-04-18T04:07:43.506Z,19.500
2023-04-18T04:08:45.336Z,18.300
2023-04-18T04:09:43.560Z,18.300
2023-04-18T04:10:43.699Z,17.400
2023-04-18T04:11:42.896Z,18.500
2023-04-18T04:12:43.083Z,19.500
2023-04-18T04:13:43.312Z,18.500
2023-04-18T04:14:43.551Z,17.900
2023-04-18T04:15:43.705Z,19.200
2023-04-18T04:16:43.080Z,18.200
2023-04-18T04:17:43.569Z,19.300
2023-04-18T04:18:42.712Z,18.500
2023-04-18T04:19:42.928Z,18.200
2023-04-18T04:20:43.132Z,17.500
2023-04-18T04:21:43.440Z,18.300
2023-04-18T04:22:43.695Z,18.800
2023-04-18T04:24:43.002Z,18.600
2023-04-18T04:25:43.308Z,18.300
2023-04-18T04:26:43.611Z,18.200
2023-04-18T04:27:43.848Z,19.000
2023-04-18T04:28:43.041Z,17.800
2023-04-18T04:29:43.188Z,19.100
2023-04-18T04:30:43.361Z,19.400
2023-04-18T04:31:43.792Z,18.300
2023-04-18T04:32:43.255Z,18.700
2023-04-18T04:33:43.446Z,20.200
2023-04-18T04:34:43.652Z,19.800
2023-04-18T04:35:42.835Z,18.700
2023-04-18T04:36:43.017Z,19.800
2023-04-18T04:37:43.231Z,19.400
2023-04-18T04:38:43.601Z,17.500
2023-04-18T04:39:43.853Z,19.300
2023-04-18T04:40:43.164Z,19.200
2023-04-18T04:41:43.352Z,18.900
2023-04-18T04:42:43.636Z,19.300
2023-04-18T04:43:42.876Z,19.500
2023-04-18T04:44:43.415Z,18.600
2023-04-18T04:45:43.757Z,19.100
2023-04-18T04:46:43.154Z,19.700
2023-04-18T04:47:43.582Z,18.900
2023-04-18T04:48:42.743Z,19.100
2023-04-18T04:49:42.916Z,18.900
2023-04-18T04:50:43.083Z,19.900
2023-04-18T04:51:43.338Z,18.700
2023-04-18T04:52:43.543Z,19.300
2023-04-18T04:53:43.681Z,19.600
2023-04-18T04:54:43.021Z,20.200
2023-04-18T04:55:43.188Z,19.600
2023-04-18T04:56:43.421Z,19.700
2023-04-18T04:57:43.649Z,18.600
2023-04-18T04:58:43.069Z,18.400
2023-04-18T04:59:43.309Z,20.100
2023-04-18T05:00:43.553Z,19.500
2023-04-18T05:01:44.071Z,18.800
2023-04-18T05:02:43.992Z,19.900
2023-04-18T05:03:44.704Z,20.400
2023-04-18T05:04:44.084Z,20.200
2023-04-18T05:05:43.313Z,21.100
2023-04-18T05:06:43.431Z,20.100
2023-04-18T05:07:43.720Z,19.300
2023-04-18T05:08:42.800Z,19.100
2023-04-18T05:09:43.000Z,20.400
2023-04-18T05:10:43.184Z,20.600
2023-04-18T05:11:43.314Z,19.400
2023-04-18T05:12:43.450Z,19.200
2023-04-18T05:13:43.703Z,19.900
2023-04-18T05:14:42.883Z,20.000
2023-04-18T05:15:43.108Z,22.000
2023-04-18T05:16:43.515Z,20.200
2023-04-18T05:17:44.050Z,20.100
2023-04-18T05:18:43.214Z,19.400
2023-04-18T05:19:43.406Z,19.600
2023-04-18T05:20:43.583Z,20.100
2023-04-18T05:21:42.799Z,20.600
2023-04-18T05:22:42.955Z,20.600
2023-04-18T05:23:43.134Z,20.200
2023-04-18T05:24:43.349Z,20.700
2023-04-18T05:25:43.763Z,20.900
2023-04-18T05:26:42.968Z,20.400
2023-04-18T05:27:43.217Z,20.700
2023-04-18T05:28:43.406Z,21.500
2023-04-18T05:29:43.674Z,20.400
2023-04-18T05:30:42.960Z,19.600
2023-04-18T05:31:43.237Z,22.200
2023-04-18T05:32:43.781Z,19.300
2023-04-18T05:33:42.971Z,21.000
2023-04-18T05:34:43.273Z,20.400
2023-04-18T05:35:43.474Z,20.400
2023-04-18T05:36:43.729Z,19.900
2023-04-18T05:37:42.899Z,19.800
2023-04-18T05:38:43.048Z,20.000
2023-04-18T05:39:43.751Z,19.800
2023-04-18T05:40:43.079Z,20.400
2023-04-18T05:41:43.214Z,20.300
2023-04-18T05:42:43.357Z,19.900
2023-04-18T05:43:58.064Z,20.800
2023-04-18T05:44:43.755Z,19.200
2023-04-18T05:47:44.006Z,21.200
2023-04-18T05:48:43.107Z,21.300
2023-04-18T05:49:43.272Z,20.900
2023-04-18T05:50:43.427Z,19.600
2023-04-18T05:51:44.385Z,19.600
2023-04-18T05:52:43.632Z,20.300
2023-04-18T05:53:42.796Z,19.600
2023-04-18T05:54:43.033Z,21.300
2023-04-18T05:55:43.197Z,19.800
2023-04-18T05:56:43.412Z,21.000
2023-04-18T05:57:43.593Z,20.400
2023-04-18T05:58:43.810Z,22.400
2023-04-18T05:59:43.076Z,19.300
2023-04-18T06:00:43.222Z,22.200
2023-04-18T06:01:43.481Z,20.600
2023-04-18T06:02:44.643Z,20.600
2023-04-18T06:03:43.903Z,20.300
2023-04-18T06:04:44.588Z,20.900
2023-04-18T06:05:43.987Z,20.600
2023-04-18T06:06:43.222Z,20.600
2023-04-18T06:07:43.424Z,18.200
2023-04-18T06:08:43.589Z,19.400
2023-04-18T06:09:43.883Z,18.900
2023-04-18T06:10:43.043Z,20.400
2023-04-18T06:11:43.277Z,20.900
2023-04-18T06:12:43.454Z,20.500
2023-04-18T06:13:43.733Z,21.300
2023-04-18T06:14:42.896Z,20.000
2023-04-18T06:15:43.099Z,21.200
2023-04-18T06:16:43.786Z,20.100
2023-04-18T06:17:43.168Z,20.600
2023-04-18T06:18:43.434Z,20.200
2023-04-18T06:19:43.593Z,20.400
2023-04-18T06:20:43.783Z,19.800
2023-04-18T06:21:42.980Z,21.100
2023-04-18T06:22:43.271Z,20.200
2023-04-18T06:23:43.475Z,19.600
2023-04-18T06:24:43.716Z,20.200
2023-04-18T06:25:43.059Z,18.400
2023-04-18T06:26:43.364Z,18.400
2023-04-18T06:27:50.696Z,19.700
2023-04-18T06:31:43.838Z,20.200
2023-04-18T06:32:43.380Z,18.300
2023-04-18T06:33:43.656Z,18.800
2023-04-18T06:34:42.850Z,18.700
2023-04-18T06:36:43.463Z,18.800
2023-04-18T06:37:43.584Z,18.000
2023-04-18T06:38:43.762Z,18.900
2023-04-18T06:39:43.115Z,19.200
2023-04-18T06:40:43.307Z,18.900
2023-04-18T06:41:43.506Z,17.600
2023-04-18T06:42:43.746Z,19.900
2023-04-18T06:44:01.852Z,17.200
2023-04-18T06:44:42.768Z,17.300
2023-04-18T06:45:43.379Z,19.100
2023-04-18T06:46:43.820Z,17.500
2023-04-18T06:47:43.274Z,17.500
2023-04-18T06:48:43.430Z,17.100
2023-04-18T06:49:45.320Z,17.600
2023-04-18T06:50:43.477Z,16.900
2023-04-18T06:51:43.689Z,16.400
2023-04-18T06:54:44.383Z,15.900
2023-04-18T06:55:43.593Z,16.200
2023-04-18T06:56:43.739Z,16.300
2023-04-18T06:57:42.964Z,15.400
2023-04-18T06:58:43.162Z,16.300
2023-04-18T06:59:43.384Z,16.100
2023-04-18T07:00:43.700Z,16.500
2023-04-18T07:01:43.059Z,16.400
2023-04-18T07:02:44.023Z,15.500
2023-04-18T07:03:47.760Z,16.700
2023-04-18T07:05:43.891Z,16.100
2023-04-18T07:06:43.199Z,15.600
2023-04-18T07:07:43.633Z,16.200
2023-04-18T07:08:42.964Z,16.000
2023-04-18T07:09:43.320Z,15.700
2023-04-18T07:10:43.598Z,16.300
2023-04-18T07:11:42.820Z,15.600
2023-04-18T07:12:43.000Z,16.400
2023-04-18T07:13:43.205Z,15.500
2023-04-18T07:14:43.544Z,15.500
2023-04-18T07:15:43.767Z,16.000
2023-04-18T07:16:43.167Z,15.500
2023-04-18T07:17:43.526Z,15.500
2023-04-18T07:18:53.628Z,14.800
2023-04-18T07:20:42.882Z,15.500
2023-04-18T07:21:43.119Z,14.900
2023-04-18T07:22:43.396Z,14.500
2023-04-18T07:23:43.577Z,15.000
2023-04-18T07:24:44.075Z,14.200
2023-04-18T07:25:43.284Z,14.700
2023-04-18T07:26:43.548Z,14.200
2023-04-18T07:27:43.905Z,14.200
2023-04-18T07:28:43.149Z,14.000
2023-04-18T07:29:43.472Z,13.900
2023-04-18T07:30:44.535Z,13.700
2023-04-18T07:31:43.801Z,14.300
2023-04-18T07:32:44.864Z,14.200
2023-04-18T07:33:43.127Z,14.900
2023-04-18T07:34:43.468Z,14.200
2023-04-18T07:35:43.728Z,14.000
2023-04-18T07:36:42.850Z,14.700
2023-04-18T07:37:43.100Z,14.300
2023-04-18T07:38:43.347Z,14.500
2023-04-18T07:39:43.911Z,14.800
2023-04-18T07:40:43.173Z,14.500
2023-04-18T07:41:43.899Z,14.300
2023-04-18T07:42:43.336Z,15.100
2023-04-18T07:43:44.715Z,15.000
2023-04-18T07:44:43.685Z,15.300
2023-04-18T07:45:43.757Z,14.200
2023-04-18T07:46:44.082Z,14.300
2023-04-18T07:47:45.522Z,15.200
2023-04-18T07:48:44.086Z,14.900
2023-04-18T07:49:43.467Z,13.000
2023-04-18T07:50:44.141Z,15.900
2023-04-18T07:51:44.865Z,15.300
2023-04-18T07:52:43.692Z,14.200
2023-04-18T07:53:43.100Z,14.400
2023-04-18T07:54:43.686Z,15.400
2023-04-18T07:55:43.194Z,14.800
2023-04-18T07:56:43.468Z,15.200
2023-04-18T07:57:44.496Z,14.900
2023-04-18T07:58:42.950Z,14.200
2023-04-18T07:59:43.325Z,14.500
2023-04-18T08:00:44.255Z,15.100
2023-04-18T08:01:43.671Z,13.400
2023-04-18T08:02:43.648Z,14.300
2023-04-18T08:03:44.113Z,15.500
2023-04-18T08:04:47.999Z,14.100
2023-04-18T08:07:43.725Z,15.000
2023-04-18T08:08:43.231Z,14.400
2023-04-18T08:09:44.549Z,14.900
2023-04-18T08:10:43.958Z,15.000
2023-04-18T08:11:43.329Z,15.100
2023-04-18T08:12:43.920Z,14.000
2023-04-18T08:13:43.375Z,14.800
2023-04-18T08:14:43.543Z,13.800
2023-04-18T08:15:44.007Z,14.400
2023-04-18T08:16:43.622Z,14.800
2023-04-18T08:17:43.032Z,14.800
2023-04-18T08:18:43.265Z,15.100
2023-04-18T08:19:43.419Z,15.100
2023-04-18T08:20:43.850Z,14.900
2023-04-18T08:21:42.989Z,14.600
2023-04-18T08:23:05.518Z,13.800
2023-04-18T08:25:04.111Z,14.200
2023-04-18T08:27:49.837Z,15.000
2023-04-18T08:28:49.752Z,14.700
2023-04-18T08:29:49.452Z,14.700
2023-04-18T08:30:49.889Z,13.500
2023-04-18T08:31:49.365Z,13.200
2023-04-18T08:32:49.894Z,13.800
2023-04-18T08:33:49.153Z,14.000
2023-04-18T08:34:49.319Z,14.100
2023-04-18T08:35:49.552Z,13.800
2023-04-18T08:36:49.758Z,13.300
2023-04-18T08:37:49.021Z,13.900
2023-04-18T08:38:49.257Z,13.500
2023-04-18T08:39:49.963Z,13.200
2023-04-18T08:40:49.171Z,13.500
2023-04-18T08:41:49.319Z,12.700
2023-04-18T08:42:49.547Z,12.800
2023-04-18T08:43:49.853Z,13.200
2023-04-18T08:44:49.096Z,13.200
2023-04-18T08:45:49.713Z,12.700
2023-04-18T08:46:49.042Z,12.300
2023-04-18T08:47:49.651Z,12.500
2023-04-18T08:48:48.888Z,11.600
2023-04-18T08:49:49.632Z,11.600
2023-04-18T08:50:48.857Z,12.200
2023-04-18T08:51:49.071Z,12.200
2023-04-18T08:52:50.210Z,12.200
2023-04-18T08:53:49.456Z,11.900
2023-04-18T08:54:50.040Z,11.600
2023-04-18T08:55:49.308Z,12.200
2023-04-18T08:56:49.687Z,11.500
2023-04-18T08:57:49.177Z,13.200
2023-04-18T08:58:49.644Z,12.000
2023-04-18T08:59:52.583Z,12.200
2023-04-18T09:00:49.874Z,11.900
2023-04-18T09:02:50.615Z,11.400
2023-04-18T09:03:49.036Z,11.400
2023-04-18T09:04:49.469Z,12.600
2023-04-18T09:05:49.800Z,11.700
2023-04-18T09:06:49.060Z,11.400
2023-04-18T09:07:49.258Z,11.800
2023-04-18T09:08:49.539Z,11.200
2023-04-18T09:09:49.944Z,10.900
2023-04-18T09:10:49.832Z,10.900
2023-04-18T09:11:49.082Z,10.200
2023-04-18T09:12:49.436Z,9.700
2023-04-18T09:13:49.603Z,9.500
2023-04-18T09:14:48.841Z,9.700
2023-04-18T09:15:49.077Z,9.400
2023-04-18T09:16:49.549Z,9.600
2023-04-18T09:17:50.237Z,10.200
2023-04-18T09:18:49.668Z,8.900
2023-04-18T09:19:48.972Z,9.000
2023-04-18T09:20:49.313Z,8.300
2023-04-18T09:21:49.530Z,8.900
2023-04-18T09:22:49.724Z,8.800
2023-04-18T09:23:48.868Z,8.500
2023-04-18T09:24:49.108Z,8.300
2023-04-18T09:25:49.321Z,9.400
2023-04-18T09:26:49.608Z,8.800
2023-04-18T09:27:48.789Z,8.700
2023-04-18T09:28:49.197Z,8.800
2023-04-18T09:29:50.155Z,10.600
2023-04-18T09:30:49.538Z,10.900
2023-04-18T09:31:50.072Z,12.100
2023-04-18T09:32:49.448Z,11.200
2023-04-18T09:34:49.379Z,11.200
2023-04-18T09:35:49.701Z,10.200
2023-04-18T09:36:49.096Z,10.900
2023-04-18T09:37:49.516Z,10.100
2023-04-18T09:38:49.761Z,9.700
2023-04-18T09:39:48.923Z,9.600
2023-04-18T09:40:49.112Z,9.500
2023-04-18T09:41:49.926Z,10.200
2023-04-18T09:42:49.134Z,9.600
2023-04-18T09:43:49.396Z,10.200
2023-04-18T09:44:51.413Z,9.800
2023-04-18T09:45:49.754Z,9.600
2023-04-18T09:46:49.429Z,9.500
2023-04-18T09:47:49.924Z,9.400
2023-04-18T09:48:49.228Z,8.400
2023-04-18T09:49:49.453Z,9.600
2023-04-18T09:50:49.664Z,9.400
2023-04-18T09:51:49.011Z,9.000
2023-04-18T09:52:49.153Z,8.900
2023-04-18T09:53:49.620Z,9.300
2023-04-18T09:54:51.209Z,9.600
2023-04-18T09:57:48.857Z,10.100
2023-04-18T09:58:49.428Z,9.300
2023-04-18T09:59:49.695Z,9.800
2023-04-18T10:00:50.112Z,9.500
2023-04-18T10:01:50.009Z,9.200
2023-04-18T10:03:49.410Z,9.200
2023-04-18T10:04:50.692Z,9.300
2023-04-18T10:05:49.258Z,8.600
2023-04-18T10:06:49.479Z,8.800
2023-04-18T10:07:49.687Z,9.700
2023-04-18T10:08:48.828Z,8.600
2023-04-18T10:09:49.400Z,9.100
2023-04-18T10:10:49.641Z,8.100
2023-04-18T10:11:49.116Z,8.800
2023-04-18T10:12:49.497Z,9.000
2023-04-18T10:13:49.884Z,8.500
2023-04-18T10:14:49.153Z,8.000
2023-04-18T10:15:52.435Z,8.700
2023-04-18T10:16:53.720Z,8.800
2023-04-18T10:18:04.085Z,9.400
2023-04-18T10:19:51.968Z,8.500
2023-04-18T10:20:52.589Z,9.400
2023-04-18T10:21:52.769Z,9.700
2023-04-18T10:22:51.944Z,8.600
2023-04-18T10:23:52.318Z,8.900
2023-04-18T10:24:52.815Z,8.700
2023-04-18T10:25:52.083Z,9.700
2023-04-18T10:26:52.319Z,9.300
2023-04-18T10:27:52.882Z,8.800
2023-04-18T10:29:52.241Z,8.700
2023-04-18T10:30:52.412Z,9.200
2023-04-18T10:31:52.844Z,10.100
2023-04-18T10:32:52.526Z,8.900
2023-04-18T10:35:58.600Z,9.800
2023-04-18T10:36:56.784Z,9.200
2023-04-18T10:38:56.330Z,9.300
2023-04-18T10:39:56.607Z,9.200
2023-04-18T10:40:55.915Z,9.300
2023-04-18T10:41:56.196Z,9.100
2023-04-18T10:42:56.401Z,9.100
2023-04-18T10:43:56.692Z,9.600
2023-04-18T10:44:55.900Z,8.700
2023-04-18T10:45:56.221Z,9.000
2023-04-18T10:47:56.221Z,9.400
2023-04-18T10:48:57.385Z,9.100
2023-04-18T10:49:56.601Z,9.200
2023-04-18T10:50:55.861Z,8.700
2023-04-18T10:51:56.114Z,7.900
2023-04-18T10:52:56.378Z,8.300
2023-04-18T10:53:56.703Z,10.200
2023-04-18T10:54:59.088Z,9.400
2023-04-18T10:56:56.721Z,9.600
2023-04-18T10:57:55.976Z,9.100
2023-04-18T10:58:56.216Z,9.500
2023-04-18T10:59:56.648Z,9.700
2023-04-18T11:00:56.049Z,10.200
2023-04-18T11:01:56.900Z,10.100
2023-04-18T11:02:56.726Z,10.500
2023-04-18T11:03:56.834Z,11.000
2023-04-18T11:04:56.009Z,11.500
2023-04-18T11:05:58.059Z,10.700
2023-04-18T11:06:56.861Z,10.300
2023-04-18T11:07:56.088Z,11.500
2023-04-18T11:08:56.263Z,11.200
2023-04-18T11:09:56.497Z,11.700
2023-04-18T11:10:57.136Z,11.700
2023-04-18T11:11:56.329Z,11.700
2023-04-18T11:12:56.657Z,11.700
2023-04-18T11:13:55.846Z,11.500
2023-04-18T11:14:56.117Z,10.900
2023-04-18T11:15:56.348Z,12.100
2023-04-18T11:16:56.850Z,11.800
2023-04-18T11:17:56.221Z,11.400
2023-04-18T11:18:56.708Z,12.200
2023-04-18T11:19:55.898Z,11.900
2023-04-18T11:20:56.071Z,11.400
2023-04-18T11:21:56.525Z,12.200
2023-04-18T11:22:56.887Z,11.400
2023-04-18T11:23:56.113Z,11.400
2023-04-18T11:24:56.274Z,11.900
2023-04-18T11:25:56.579Z,11.900
2023-04-18T11:26:56.277Z,11.800
2023-04-18T11:27:56.735Z,11.900
2023-04-18T11:28:55.980Z,11.800
2023-04-18T11:29:56.224Z,12.000
2023-04-18T11:30:56.500Z,11.500
2023-04-18T11:32:01.402Z,11.600
2023-04-18T11:33:56.330Z,12.800
2023-04-18T11:34:56.664Z,14.200
2023-04-18T11:35:55.837Z,12.900
2023-04-18T11:36:56.097Z,12.500
2023-04-18T11:37:56.526Z,13.700
2023-04-18T11:38:58.825Z,13.400
2023-04-18T11:39:56.144Z,13.000
2023-04-18T11:40:56.435Z,13.000
2023-04-18T11:41:56.679Z,13.700
2023-04-18T11:42:56.111Z,13.000
2023-04-18T11:43:56.395Z,13.800
2023-04-18T11:44:56.664Z,14.800
2023-04-18T11:45:56.015Z,16.500
2023-04-18T11:46:56.409Z,15.600
2023-04-18T11:47:56.927Z,14.100
2023-04-18T11:48:56.237Z,14.800
2023-04-18T11:49:59.871Z,14.400
2023-04-18T11:51:56.253Z,16.500
2023-04-18T11:52:56.640Z,15.800
2023-04-18T11:53:55.799Z,14.400
2023-04-18T11:54:55.969Z,15.700
2023-04-18T11:55:56.199Z,15.000
2023-04-18T11:56:56.379Z,12.600
2023-04-18T11:57:56.649Z,15.500
2023-04-18T11:58:55.912Z,23.700
2023-04-18T11:59:56.170Z,16.400
2023-04-18T12:00:56.428Z,14.700
2023-04-18T12:02:09.040Z,14.400
2023-04-18T12:02:56.914Z,13.200
2023-04-18T12:03:56.845Z,16.400
2023-04-18T12:04:58.370Z,12.200
2023-04-18T12:05:58.670Z,12.600
2023-04-18T12:06:55.864Z,11.900
2023-04-18T12:07:56.047Z,11.300
2023-04-18T12:08:57.145Z,11.700
2023-04-18T12:09:56.425Z,12.800
2023-04-18T12:10:56.588Z,12.100
2023-04-18T12:11:56.833Z,12.800
2023-04-18T12:12:56.061Z,12.200
2023-04-18T12:13:56.403Z,11.900
2023-04-18T12:14:56.680Z,12.400
2023-04-18T12:15:56.248Z,12.000
2023-04-18T12:16:56.520Z,11.900
2023-04-18T12:17:57.119Z,11.800
2023-04-18T12:18:56.385Z,12.200
2023-04-18T12:19:56.716Z,13.200
2023-04-18T12:20:55.995Z,12.300
2023-04-18T12:21:56.189Z,13.300
2023-04-18T12:22:56.541Z,12.600
2023-04-18T12:23:56.785Z,13.400
2023-04-18T12:24:56.053Z,12.600
2023-04-18T12:25:56.366Z,12.300
2023-04-18T12:26:56.672Z,11.600
2023-04-18T12:27:55.823Z,13.300
2023-04-18T12:28:56.116Z,13.100
2023-04-18T12:29:56.436Z,13.000
2023-04-18T12:30:56.788Z,13.700
2023-04-18T12:31:56.725Z,12.900
2023-04-18T12:32:56.273Z,12.200
2023-04-18T12:33:56.640Z,12.300
2023-04-18T12:34:55.814Z,11.700
2023-04-18T12:35:55.938Z,12.800
2023-04-18T12:36:56.230Z,12.000
2023-04-18T12:37:57.622Z,12.600
2023-04-18T12:38:55.803Z,11.400
2023-04-18T12:39:56.036Z,11.300
2023-04-18T12:40:56.280Z,11.300
2023-04-18T12:41:56.578Z,12.400
2023-04-18T12:42:56.516Z,11.300
2023-04-18T12:43:56.877Z,11.100
2023-04-18T12:44:56.032Z,11.800
2023-04-18T12:45:56.557Z,11.600
2023-04-18T12:46:56.151Z,11.200
2023-04-18T12:47:56.886Z,11.000
2023-04-18T12:48:56.060Z,12.000
2023-04-18T12:49:56.408Z,11.600
2023-04-18T12:50:56.713Z,11.600
2023-04-18T12:51:55.954Z,10.400
2023-04-18T12:52:56.301Z,10.800
2023-04-18T12:53:56.577Z,10.600
2023-04-18T12:54:56.828Z,10.300
2023-04-18T12:55:56.010Z,10.900
2023-04-18T12:56:56.752Z,11.700
2023-04-18T12:57:56.128Z,10.700
2023-04-18T12:58:56.364Z,10.800
2023-04-18T12:59:56.683Z,11.100
2023-04-18T13:00:56.138Z,9.900
2023-04-18T13:01:56.969Z,11.500
2023-04-18T13:02:57.065Z,10.500
2023-04-18T13:04:12.179Z,10.700
2023-04-18T13:06:59.151Z,11.600
2023-04-18T13:08:15.986Z,11.100
2023-04-18T13:10:00.350Z,10.200
2023-04-18T13:11:00.967Z,10.500
2023-04-18T13:12:00.131Z,10.500
2023-04-18T13:13:00.391Z,10.400
2023-04-18T13:14:00.636Z,11.800
2023-04-18T13:15:00.035Z,12.300